• Join FlightAware (Why Join?)
  • Login
  • US Flag 
04:30PM EDT


 

Airport Tracker/Info


-or-


 

Live Flight TrackerFlight Track Log ✈ TAM3076 ✈ 07-May-2013 ✈ SBGL / GIG - SBVT / VIX

Flight Track Log - Related Links

Times and Time Zones

All times are in EDT time to prevent confusion due to time zone crossing. See the TAM3076 flight status page for this flight to view local times or setup timezone preferences in your user account.

Time Position Orientation Groundspeed Altitude Reporting Facility
EDT Latitude Longitude Course Direction KTS MPH feet Rate Location/Type
09:53AM -22.1414 -42.4537 48° Northeast  Level Estimated
09:54AM -22.0936 -42.3975 47° Northeast  Level Estimated
09:55AM -22.0458 -42.3414 47° Northeast  Level Estimated
09:56AM -21.9979 -42.2854 47° Northeast  Level Estimated
09:57AM -21.9500 -42.2294 47° Northeast  Level Estimated
09:58AM -21.9021 -42.1734 47° Northeast  Level Estimated
09:59AM -21.8542 -42.1174 47° Northeast  Level Estimated
10:00AM -21.8063 -42.0615 47° Northeast  Level Estimated
10:01AM -21.7583 -42.0056 47° Northeast  Level Estimated
10:02AM -21.7103 -41.9498 47° Northeast  Level Estimated
10:03AM -21.6623 -41.8940 47° Northeast  Level Estimated
10:04AM -21.6143 -41.8382 47° Northeast  Level Estimated
10:05AM -21.5663 -41.7825 47° Northeast  Level Estimated
10:06AM -21.5183 -41.7268 47° Northeast  Level Estimated
10:07AM -21.4702 -41.6712 47° Northeast  Level Estimated
10:08AM -21.4221 -41.6156 47° Northeast  Level Estimated
10:09AM -21.3740 -41.5600 47° Northeast  Level Estimated
10:10AM -21.3259 -41.5045 47° Northeast  Level Estimated
10:11AM -21.2777 -41.4490 47° Northeast  Level Estimated
10:12AM -21.2296 -41.3935 47° Northeast  Level Estimated
10:13AM -21.1814 -41.3381 47° Northeast  Level Estimated
10:14AM -21.1332 -41.2826 47° Northeast  Level Estimated
10:15AM -21.0850 -41.2273 47° Northeast  Level Estimated
10:16AM -21.0368 -41.1720 47° Northeast  Level Estimated
10:17AM -20.9885 -41.1167 47° Northeast  Level Estimated
10:18AM -20.9403 -41.0614 47° Northeast  Level Estimated
10:19AM -20.8920 -41.0062 47° Northeast  Level Estimated
10:20AM -20.8437 -40.9510 47° Northeast  Level Estimated
10:21AM -20.7953 -40.8959 47° Northeast  Level Estimated
10:22AM -20.7470 -40.8408 47° Northeast  Level Estimated
10:23AM -20.6987 -40.7857 47° Northeast  Level Estimated
10:24AM -20.6503 -40.7307 47° Northeast  Level Estimated
10:25AM -20.6019 -40.6757 47° Northeast  Level Estimated
10:26AM -20.5535 -40.6207 47° Northeast  Level Estimated
10:27AM -20.5051 -40.5658 47° Northeast  Level Estimated
10:28AM -20.4566 -40.5109 47° Northeast  Level Estimated
10:29AM -20.4082 -40.4560 47° Northeast  Level Estimated
10:30AM -20.3597 -40.4012 47° Northeast  Level Estimated
10:31AM -20.3112 -40.3464 47° Northeast  Level Estimated
10:32AM -20.2627 -40.2916 47° Northeast  Level Estimated
10:33AM -20.2581 -40.2864 47° Northeast  Level Estimated
10:34AM -20.2581 -40.2864 13° North  Level Estimated
10:35AM -20.2581 -40.2864 13° North  Level Estimated
10:36AM -20.2581 -40.2864 13° North  Level Estimated
10:37AM -20.2581 -40.2864 13° North  Level Estimated
10:38AM -20.2581 -40.2864 13° North  Level Estimated
10:39AM -20.2581 -40.2864 13° North  Level Estimated
10:40AM -20.2581 -40.2864 13° North  Level Estimated
10:41AM -20.2581 -40.2864 13° North  Level Estimated
10:42AM -20.2581 -40.2864 13° North  Level Estimated
10:43AM -20.2581 -40.2864 13° North  Level Estimated
10:44AM -20.2581 -40.2864 13° North  Level Estimated
10:45AM -20.2581 -40.2864 13° North  Level Estimated
10:46AM -20.2581 -40.2864 13° North  Level Estimated
10:47AM -20.2581 -40.2864 13° North  Level Estimated
10:48AM -20.2581 -40.2864 13° North  Level Estimated